sensor_id;sensor_type;location;lat;lon;timestamp;P1;durP1;ratioP1;P2;durP2;ratioP2
75937;SDS011;64615;32.062;34.834;2023-06-10T00:01:58;7.60;;;2.80;;
75937;SDS011;64615;32.062;34.834;2023-06-10T00:04:25;7.40;;;3.00;;
75937;SDS011;64615;32.062;34.834;2023-06-10T00:06:51;6.95;;;2.75;;
75937;SDS011;64615;32.062;34.834;2023-06-10T00:09:18;8.88;;;2.72;;
75937;SDS011;64615;32.062;34.834;2023-06-10T00:11:46;6.10;;;2.63;;
75937;SDS011;64615;32.062;34.834;2023-06-10T00:14:13;6.25;;;2.35;;
75937;SDS011;64615;32.062;34.834;2023-06-10T00:16:39;5.47;;;2.40;;
75937;SDS011;64615;32.062;34.834;2023-06-10T00:19:04;5.85;;;2.30;;
75937;SDS011;64615;32.062;34.834;2023-06-10T00:21:31;4.50;;;2.20;;
75937;SDS011;64615;32.062;34.834;2023-06-10T00:26:37;4.50;;;2.25;;
75937;SDS011;64615;32.062;34.834;2023-06-10T00:29:06;4.78;;;2.00;;
75937;SDS011;64615;32.062;34.834;2023-06-10T00:31:36;5.35;;;2.20;;
75937;SDS011;64615;32.062;34.834;2023-06-10T00:34:02;5.28;;;2.17;;
75937;SDS011;64615;32.062;34.834;2023-06-10T00:36:28;4.32;;;2.10;;
75937;SDS011;64615;32.062;34.834;2023-06-10T00:38:55;5.43;;;2.10;;
75937;SDS011;64615;32.062;34.834;2023-06-10T00:41:21;4.70;;;2.20;;
75937;SDS011;64615;32.062;34.834;2023-06-10T00:43:46;4.55;;;1.98;;
75937;SDS011;64615;32.062;34.834;2023-06-10T00:46:20;4.22;;;1.90;;
75937;SDS011;64615;32.062;34.834;2023-06-10T00:48:47;3.45;;;1.75;;
75937;SDS011;64615;32.062;34.834;2023-06-10T00:51:13;4.65;;;2.20;;
75937;SDS011;64615;32.062;34.834;2023-06-10T00:53:39;3.50;;;1.95;;
75937;SDS011;64615;32.062;34.834;2023-06-10T00:56:06;4.43;;;2.10;;
75937;SDS011;64615;32.062;34.834;2023-06-10T00:58:32;3.90;;;1.60;;
75937;SDS011;64615;32.062;34.834;2023-06-10T01:00:58;4.13;;;1.80;;
75937;SDS011;64615;32.062;34.834;2023-06-10T01:03:24;3.72;;;1.60;;
75937;SDS011;64615;32.062;34.834;2023-06-10T01:06:01;3.58;;;1.80;;
75937;SDS011;64615;32.062;34.834;2023-06-10T01:08:45;3.08;;;1.67;;
75937;SDS011;64615;32.062;34.834;2023-06-10T01:11:19;3.80;;;1.92;;
75937;SDS011;64615;32.062;34.834;2023-06-10T01:13:49;3.28;;;1.52;;
75937;SDS011;64615;32.062;34.834;2023-06-10T01:16:17;3.10;;;1.63;;
75937;SDS011;64615;32.062;34.834;2023-06-10T01:18:44;3.53;;;1.80;;
75937;SDS011;64615;32.062;34.834;2023-06-10T01:21:16;3.47;;;1.80;;
75937;SDS011;64615;32.062;34.834;2023-06-10T01:23:45;3.58;;;1.80;;
75937;SDS011;64615;32.062;34.834;2023-06-10T01:26:11;3.53;;;1.60;;
75937;SDS011;64615;32.062;34.834;2023-06-10T01:28:50;3.35;;;1.40;;
75937;SDS011;64615;32.062;34.834;2023-06-10T01:33:59;3.50;;;1.83;;
75937;SDS011;64615;32.062;34.834;2023-06-10T01:36:26;3.80;;;1.80;;
75937;SDS011;64615;32.062;34.834;2023-06-10T01:38:53;3.05;;;1.50;;
75937;SDS011;64615;32.062;34.834;2023-06-10T01:41:20;5.35;;;1.50;;
75937;SDS011;64615;32.062;34.834;2023-06-10T01:43:47;4.15;;;1.70;;
75937;SDS011;64615;32.062;34.834;2023-06-10T01:46:13;4.28;;;1.80;;
75937;SDS011;64615;32.062;34.834;2023-06-10T01:48:41;2.75;;;1.50;;
75937;SDS011;64615;32.062;34.834;2023-06-10T01:51:07;3.53;;;1.52;;
75937;SDS011;64615;32.062;34.834;2023-06-10T01:53:33;3.20;;;1.40;;
75937;SDS011;64615;32.062;34.834;2023-06-10T01:55:58;2.88;;;1.52;;
75937;SDS011;64615;32.062;34.834;2023-06-10T01:58:25;3.58;;;1.60;;
75937;SDS011;64615;32.062;34.834;2023-06-10T02:00:50;4.72;;;1.65;;
75937;SDS011;64615;32.062;34.834;2023-06-10T02:03:16;4.28;;;1.73;;
75937;SDS011;64615;32.062;34.834;2023-06-10T02:05:42;4.22;;;1.60;;
75937;SDS011;64615;32.062;34.834;2023-06-10T02:08:08;3.53;;;1.67;;
75937;SDS011;64615;32.062;34.834;2023-06-10T02:10:33;5.65;;;1.83;;
75937;SDS011;64615;32.062;34.834;2023-06-10T02:12:59;3.63;;;1.70;;
75937;SDS011;64615;32.062;34.834;2023-06-10T02:15:25;3.25;;;1.50;;
75937;SDS011;64615;32.062;34.834;2023-06-10T02:17:51;4.38;;;1.80;;
75937;SDS011;64615;32.062;34.834;2023-06-10T02:20:17;6.28;;;1.83;;
75937;SDS011;64615;32.062;34.834;2023-06-10T02:22:43;4.75;;;1.90;;
75937;SDS011;64615;32.062;34.834;2023-06-10T02:25:09;4.32;;;1.80;;
75937;SDS011;64615;32.062;34.834;2023-06-10T02:27:35;4.35;;;1.67;;
75937;SDS011;64615;32.062;34.834;2023-06-10T02:30:00;3.80;;;1.63;;
75937;SDS011;64615;32.062;34.834;2023-06-10T02:32:26;3.33;;;1.52;;
75937;SDS011;64615;32.062;34.834;2023-06-10T02:34:53;5.32;;;1.60;;
75937;SDS011;64615;32.062;34.834;2023-06-10T02:37:19;5.10;;;1.73;;
75937;SDS011;64615;32.062;34.834;2023-06-10T02:39:45;4.85;;;1.80;;
75937;SDS011;64615;32.062;34.834;2023-06-10T02:42:11;4.25;;;1.60;;
75937;SDS011;64615;32.062;34.834;2023-06-10T02:44:37;4.05;;;1.80;;
75937;SDS011;64615;32.062;34.834;2023-06-10T02:47:03;3.72;;;1.75;;
75937;SDS011;64615;32.062;34.834;2023-06-10T02:49:30;3.20;;;1.60;;
75937;SDS011;64615;32.062;34.834;2023-06-10T02:51:55;4.10;;;1.60;;
75937;SDS011;64615;32.062;34.834;2023-06-10T02:54:24;5.13;;;1.80;;
75937;SDS011;64615;32.062;34.834;2023-06-10T02:56:51;5.18;;;2.13;;
75937;SDS011;64615;32.062;34.834;2023-06-10T02:59:17;4.82;;;2.00;;
75937;SDS011;64615;32.062;34.834;2023-06-10T03:01:44;5.68;;;2.10;;
75937;SDS011;64615;32.062;34.834;2023-06-10T03:04:10;5.25;;;1.85;;
75937;SDS011;64615;32.062;34.834;2023-06-10T03:06:38;7.63;;;2.28;;
75937;SDS011;64615;32.062;34.834;2023-06-10T03:09:06;7.07;;;2.30;;
75937;SDS011;64615;32.062;34.834;2023-06-10T03:11:35;10.32;;;2.05;;
75937;SDS011;64615;32.062;34.834;2023-06-10T03:14:01;4.90;;;2.10;;
75937;SDS011;64615;32.062;34.834;2023-06-10T03:16:27;11.52;;;2.90;;
75937;SDS011;64615;32.062;34.834;2023-06-10T03:18:53;7.47;;;3.30;;
75937;SDS011;64615;32.062;34.834;2023-06-10T03:21:19;10.95;;;3.40;;
75937;SDS011;64615;32.062;34.834;2023-06-10T03:23:45;10.82;;;3.50;;
75937;SDS011;64615;32.062;34.834;2023-06-10T03:26:11;15.82;;;3.80;;
75937;SDS011;64615;32.062;34.834;2023-06-10T03:31:05;11.90;;;3.67;;
75937;SDS011;64615;32.062;34.834;2023-06-10T03:33:30;14.82;;;4.45;;
75937;SDS011;64615;32.062;34.834;2023-06-10T03:35:56;21.02;;;4.38;;
75937;SDS011;64615;32.062;34.834;2023-06-10T03:38:22;15.15;;;3.67;;
75937;SDS011;64615;32.062;34.834;2023-06-10T03:40:47;11.80;;;3.80;;
75937;SDS011;64615;32.062;34.834;2023-06-10T03:43:13;19.65;;;4.53;;
75937;SDS011;64615;32.062;34.834;2023-06-10T03:45:38;14.25;;;3.90;;
75937;SDS011;64615;32.062;34.834;2023-06-10T03:48:06;16.45;;;3.78;;
75937;SDS011;64615;32.062;34.834;2023-06-10T03:50:33;14.50;;;3.92;;
75937;SDS011;64615;32.062;34.834;2023-06-10T03:52:59;13.73;;;4.00;;
75937;SDS011;64615;32.062;34.834;2023-06-10T03:55:24;9.98;;;3.53;;
75937;SDS011;64615;32.062;34.834;2023-06-10T03:57:50;11.23;;;3.60;;
75937;SDS011;64615;32.062;34.834;2023-06-10T04:00:16;11.57;;;3.50;;
75937;SDS011;64615;32.062;34.834;2023-06-10T04:02:43;13.57;;;4.07;;
75937;SDS011;64615;32.062;34.834;2023-06-10T04:05:12;24.33;;;4.53;;
75937;SDS011;64615;32.062;34.834;2023-06-10T04:07:39;18.20;;;3.95;;
75937;SDS011;64615;32.062;34.834;2023-06-10T04:10:09;14.60;;;3.55;;
75937;SDS011;64615;32.062;34.834;2023-06-10T04:12:35;14.93;;;3.70;;
75937;SDS011;64615;32.062;34.834;2023-06-10T04:15:02;13.73;;;3.40;;
75937;SDS011;64615;32.062;34.834;2023-06-10T04:17:29;22.98;;;17.73;;
75937;SDS011;64615;32.062;34.834;2023-06-10T04:19:55;18.13;;;12.57;;
75937;SDS011;64615;32.062;34.834;2023-06-10T04:22:21;16.10;;;5.88;;
75937;SDS011;64615;32.062;34.834;2023-06-10T04:24:47;11.30;;;5.22;;
75937;SDS011;64615;32.062;34.834;2023-06-10T04:27:13;13.07;;;6.10;;
75937;SDS011;64615;32.062;34.834;2023-06-10T04:29:39;13.40;;;4.35;;
75937;SDS011;64615;32.062;34.834;2023-06-10T04:32:05;12.77;;;4.45;;
75937;SDS011;64615;32.062;34.834;2023-06-10T04:34:36;12.05;;;4.13;;
75937;SDS011;64615;32.062;34.834;2023-06-10T04:37:04;12.95;;;4.30;;
75937;SDS011;64615;32.062;34.834;2023-06-10T04:39:30;12.60;;;3.22;;
75937;SDS011;64615;32.062;34.834;2023-06-10T04:41:56;14.60;;;3.95;;
75937;SDS011;64615;32.062;34.834;2023-06-10T04:44:22;10.80;;;3.55;;
75937;SDS011;64615;32.062;34.834;2023-06-10T04:46:47;9.77;;;3.58;;
75937;SDS011;64615;32.062;34.834;2023-06-10T04:49:13;12.38;;;3.75;;
75937;SDS011;64615;32.062;34.834;2023-06-10T04:51:41;11.18;;;3.75;;
75937;SDS011;64615;32.062;34.834;2023-06-10T04:54:07;14.65;;;3.53;;
75937;SDS011;64615;32.062;34.834;2023-06-10T04:56:32;10.07;;;3.45;;
75937;SDS011;64615;32.062;34.834;2023-06-10T04:58:58;12.18;;;3.20;;
75937;SDS011;64615;32.062;34.834;2023-06-10T05:01:25;8.25;;;3.35;;
75937;SDS011;64615;32.062;34.834;2023-06-10T05:03:51;12.18;;;3.92;;
75937;SDS011;64615;32.062;34.834;2023-06-10T05:06:17;15.52;;;3.72;;
75937;SDS011;64615;32.062;34.834;2023-06-10T05:08:42;10.63;;;3.20;;
75937;SDS011;64615;32.062;34.834;2023-06-10T05:11:08;8.30;;;3.60;;
75937;SDS011;64615;32.062;34.834;2023-06-10T05:13:34;11.55;;;3.22;;
75937;SDS011;64615;32.062;34.834;2023-06-10T05:15:59;8.65;;;3.30;;
75937;SDS011;64615;32.062;34.834;2023-06-10T05:18:25;10.05;;;3.13;;
75937;SDS011;64615;32.062;34.834;2023-06-10T05:20:51;10.48;;;3.42;;
75937;SDS011;64615;32.062;34.834;2023-06-10T05:23:19;24.10;;;3.65;;
75937;SDS011;64615;32.062;34.834;2023-06-10T05:25:45;10.90;;;3.05;;
75937;SDS011;64615;32.062;34.834;2023-06-10T05:28:11;16.95;;;3.00;;
75937;SDS011;64615;32.062;34.834;2023-06-10T05:30:37;15.07;;;3.55;;
75937;SDS011;64615;32.062;34.834;2023-06-10T05:33:03;13.82;;;3.38;;
75937;SDS011;64615;32.062;34.834;2023-06-10T05:35:30;19.65;;;3.70;;
75937;SDS011;64615;32.062;34.834;2023-06-10T05:37:55;13.38;;;3.17;;
75937;SDS011;64615;32.062;34.834;2023-06-10T05:40:21;14.63;;;3.35;;
75937;SDS011;64615;32.062;34.834;2023-06-10T05:42:47;12.82;;;3.28;;
75937;SDS011;64615;32.062;34.834;2023-06-10T05:45:12;21.67;;;3.30;;
75937;SDS011;64615;32.062;34.834;2023-06-10T05:47:38;11.55;;;3.17;;
75937;SDS011;64615;32.062;34.834;2023-06-10T05:50:04;14.05;;;3.13;;
75937;SDS011;64615;32.062;34.834;2023-06-10T05:52:34;20.00;;;3.38;;
75937;SDS011;64615;32.062;34.834;2023-06-10T05:55:05;12.25;;;3.00;;
75937;SDS011;64615;32.062;34.834;2023-06-10T05:57:31;16.65;;;3.20;;
75937;SDS011;64615;32.062;34.834;2023-06-10T05:59:56;12.70;;;3.10;;
75937;SDS011;64615;32.062;34.834;2023-06-10T06:02:22;13.40;;;2.95;;
75937;SDS011;64615;32.062;34.834;2023-06-10T06:04:48;24.45;;;3.80;;
75937;SDS011;64615;32.062;34.834;2023-06-10T06:07:14;19.90;;;3.78;;
75937;SDS011;64615;32.062;34.834;2023-06-10T06:09:39;19.70;;;3.45;;
75937;SDS011;64615;32.062;34.834;2023-06-10T06:12:05;23.10;;;3.13;;
75937;SDS011;64615;32.062;34.834;2023-06-10T06:14:37;14.18;;;3.13;;
75937;SDS011;64615;32.062;34.834;2023-06-10T06:17:06;17.00;;;3.35;;
75937;SDS011;64615;32.062;34.834;2023-06-10T06:19:32;8.60;;;2.78;;
75937;SDS011;64615;32.062;34.834;2023-06-10T06:21:58;10.30;;;3.30;;
75937;SDS011;64615;32.062;34.834;2023-06-10T06:24:23;10.18;;;3.08;;
75937;SDS011;64615;32.062;34.834;2023-06-10T06:26:49;13.48;;;2.92;;
75937;SDS011;64615;32.062;34.834;2023-06-10T06:29:15;15.10;;;3.53;;
75937;SDS011;64615;32.062;34.834;2023-06-10T06:31:40;12.63;;;3.08;;
75937;SDS011;64615;32.062;34.834;2023-06-10T06:34:06;12.05;;;3.00;;
75937;SDS011;64615;32.062;34.834;2023-06-10T06:36:31;13.07;;;3.35;;
75937;SDS011;64615;32.062;34.834;2023-06-10T06:38:57;8.93;;;2.92;;
75937;SDS011;64615;32.062;34.834;2023-06-10T06:41:24;12.15;;;3.20;;
75937;SDS011;64615;32.062;34.834;2023-06-10T06:43:53;20.23;;;3.20;;
75937;SDS011;64615;32.062;34.834;2023-06-10T06:46:19;11.82;;;3.20;;
75937;SDS011;64615;32.062;34.834;2023-06-10T06:48:46;12.38;;;3.25;;
75937;SDS011;64615;32.062;34.834;2023-06-10T06:51:12;23.45;;;3.92;;
75937;SDS011;64615;32.062;34.834;2023-06-10T06:53:38;18.60;;;3.42;;
75937;SDS011;64615;32.062;34.834;2023-06-10T06:56:09;25.42;;;4.00;;
75937;SDS011;64615;32.062;34.834;2023-06-10T06:58:36;23.90;;;3.60;;
75937;SDS011;64615;32.062;34.834;2023-06-10T07:01:02;17.77;;;4.35;;
75937;SDS011;64615;32.062;34.834;2023-06-10T07:03:28;17.95;;;4.72;;
75937;SDS011;64615;32.062;34.834;2023-06-10T07:05:53;23.08;;;5.10;;
75937;SDS011;64615;32.062;34.834;2023-06-10T07:08:19;19.52;;;5.55;;
75937;SDS011;64615;32.062;34.834;2023-06-10T07:10:44;13.65;;;5.15;;
75937;SDS011;64615;32.062;34.834;2023-06-10T07:13:10;17.73;;;6.00;;
75937;SDS011;64615;32.062;34.834;2023-06-10T07:15:36;24.83;;;7.30;;
75937;SDS011;64615;32.062;34.834;2023-06-10T07:18:03;28.73;;;7.20;;
75937;SDS011;64615;32.062;34.834;2023-06-10T07:20:29;24.05;;;6.22;;
75937;SDS011;64615;32.062;34.834;2023-06-10T07:22:54;31.30;;;6.57;;
75937;SDS011;64615;32.062;34.834;2023-06-10T07:25:20;29.70;;;7.20;;
75937;SDS011;64615;32.062;34.834;2023-06-10T07:27:46;16.13;;;6.78;;
75937;SDS011;64615;32.062;34.834;2023-06-10T07:30:11;21.88;;;7.47;;
75937;SDS011;64615;32.062;34.834;2023-06-10T07:32:38;18.92;;;7.38;;
75937;SDS011;64615;32.062;34.834;2023-06-10T07:35:05;17.65;;;7.15;;
75937;SDS011;64615;32.062;34.834;2023-06-10T07:37:33;20.60;;;7.22;;
75937;SDS011;64615;32.062;34.834;2023-06-10T07:39:59;12.70;;;6.90;;
75937;SDS011;64615;32.062;34.834;2023-06-10T07:42:24;20.23;;;6.63;;
75937;SDS011;64615;32.062;34.834;2023-06-10T07:44:50;18.25;;;7.03;;
75937;SDS011;64615;32.062;34.834;2023-06-10T07:47:16;15.48;;;7.45;;
75937;SDS011;64615;32.062;34.834;2023-06-10T07:49:41;19.08;;;6.93;;
75937;SDS011;64615;32.062;34.834;2023-06-10T07:52:07;19.52;;;7.45;;
75937;SDS011;64615;32.062;34.834;2023-06-10T07:54:33;16.92;;;6.97;;
75937;SDS011;64615;32.062;34.834;2023-06-10T07:56:59;14.52;;;6.93;;
75937;SDS011;64615;32.062;34.834;2023-06-10T07:59:24;15.50;;;6.82;;
75937;SDS011;64615;32.062;34.834;2023-06-10T08:01:52;17.13;;;7.25;;
75937;SDS011;64615;32.062;34.834;2023-06-10T08:04:18;18.15;;;7.28;;
75937;SDS011;64615;32.062;34.834;2023-06-10T08:06:43;16.95;;;7.75;;
75937;SDS011;64615;32.062;34.834;2023-06-10T08:09:09;17.52;;;7.38;;
75937;SDS011;64615;32.062;34.834;2023-06-10T08:11:35;18.20;;;6.85;;
75937;SDS011;64615;32.062;34.834;2023-06-10T08:14:01;12.75;;;7.20;;
75937;SDS011;64615;32.062;34.834;2023-06-10T08:16:27;15.80;;;7.25;;
75937;SDS011;64615;32.062;34.834;2023-06-10T08:18:52;14.38;;;6.55;;
75937;SDS011;64615;32.062;34.834;2023-06-10T08:21:18;15.93;;;7.43;;
75937;SDS011;64615;32.062;34.834;2023-06-10T08:23:44;17.40;;;7.70;;
75937;SDS011;64615;32.062;34.834;2023-06-10T08:26:10;15.90;;;7.35;;
75937;SDS011;64615;32.062;34.834;2023-06-10T08:28:35;16.05;;;7.38;;
75937;SDS011;64615;32.062;34.834;2023-06-10T08:31:01;12.30;;;6.70;;
75937;SDS011;64615;32.062;34.834;2023-06-10T08:33:27;15.52;;;7.10;;
75937;SDS011;64615;32.062;34.834;2023-06-10T08:35:52;15.90;;;7.45;;
75937;SDS011;64615;32.062;34.834;2023-06-10T08:38:18;18.90;;;7.38;;
75937;SDS011;64615;32.062;34.834;2023-06-10T08:40:43;15.13;;;6.75;;
75937;SDS011;64615;32.062;34.834;2023-06-10T08:43:17;15.85;;;6.57;;
75937;SDS011;64615;32.062;34.834;2023-06-10T08:45:48;13.35;;;6.50;;
75937;SDS011;64615;32.062;34.834;2023-06-10T08:48:14;16.35;;;7.30;;
75937;SDS011;64615;32.062;34.834;2023-06-10T08:50:42;16.02;;;7.50;;
75937;SDS011;64615;32.062;34.834;2023-06-10T08:53:08;16.38;;;6.80;;
75937;SDS011;64615;32.062;34.834;2023-06-10T08:55:41;11.80;;;6.45;;
75937;SDS011;64615;32.062;34.834;2023-06-10T08:58:07;13.98;;;6.63;;
75937;SDS011;64615;32.062;34.834;2023-06-10T09:00:33;15.55;;;7.70;;
75937;SDS011;64615;32.062;34.834;2023-06-10T09:03:01;14.38;;;7.18;;
75937;SDS011;64615;32.062;34.834;2023-06-10T09:05:28;11.65;;;6.32;;
75937;SDS011;64615;32.062;34.834;2023-06-10T09:07:54;15.13;;;6.45;;
75937;SDS011;64615;32.062;34.834;2023-06-10T09:10:22;15.88;;;7.22;;
75937;SDS011;64615;32.062;34.834;2023-06-10T09:12:48;15.15;;;6.10;;
75937;SDS011;64615;32.062;34.834;2023-06-10T09:15:14;16.08;;;6.82;;
75937;SDS011;64615;32.062;34.834;2023-06-10T09:20:08;14.15;;;6.38;;
75937;SDS011;64615;32.062;34.834;2023-06-10T09:22:34;15.48;;;6.65;;
75937;SDS011;64615;32.062;34.834;2023-06-10T09:25:07;14.70;;;5.72;;
75937;SDS011;64615;32.062;34.834;2023-06-10T09:27:44;14.48;;;6.38;;
75937;SDS011;64615;32.062;34.834;2023-06-10T09:33:02;11.90;;;5.60;;
75937;SDS011;64615;32.062;34.834;2023-06-10T09:35:35;11.80;;;5.75;;
75937;SDS011;64615;32.062;34.834;2023-06-10T09:38:00;14.75;;;6.47;;
75937;SDS011;64615;32.062;34.834;2023-06-10T09:40:27;16.15;;;6.00;;
75937;SDS011;64615;32.062;34.834;2023-06-10T09:42:54;13.60;;;6.03;;
75937;SDS011;64615;32.062;34.834;2023-06-10T09:45:21;14.02;;;5.90;;
75937;SDS011;64615;32.062;34.834;2023-06-10T09:47:51;13.88;;;5.88;;
75937;SDS011;64615;32.062;34.834;2023-06-10T09:50:20;13.90;;;5.93;;
75937;SDS011;64615;32.062;34.834;2023-06-10T09:52:47;12.85;;;5.85;;
75937;SDS011;64615;32.062;34.834;2023-06-10T09:55:13;14.27;;;6.43;;
75937;SDS011;64615;32.062;34.834;2023-06-10T09:57:39;13.18;;;6.40;;
75937;SDS011;64615;32.062;34.834;2023-06-10T10:00:07;23.80;;;6.80;;
75937;SDS011;64615;32.062;34.834;2023-06-10T10:02:53;19.13;;;5.88;;
75937;SDS011;64615;32.062;34.834;2023-06-10T10:05:19;16.17;;;6.28;;
75937;SDS011;64615;32.062;34.834;2023-06-10T10:07:49;13.57;;;5.78;;
75937;SDS011;64615;32.062;34.834;2023-06-10T10:10:16;10.00;;;5.68;;
75937;SDS011;64615;32.062;34.834;2023-06-10T10:12:43;9.15;;;5.25;;
75937;SDS011;64615;32.062;34.834;2023-06-10T10:15:12;9.63;;;5.00;;
75937;SDS011;64615;32.062;34.834;2023-06-10T10:17:50;9.40;;;5.10;;
75937;SDS011;64615;32.062;34.834;2023-06-10T10:20:24;7.35;;;4.70;;
75937;SDS011;64615;32.062;34.834;2023-06-10T10:22:52;6.95;;;4.63;;
75937;SDS011;64615;32.062;34.834;2023-06-10T10:25:33;8.82;;;4.60;;
75937;SDS011;64615;32.062;34.834;2023-06-10T10:28:11;7.43;;;4.63;;
75937;SDS011;64615;32.062;34.834;2023-06-10T10:30:42;7.13;;;4.85;;
75937;SDS011;64615;32.062;34.834;2023-06-10T10:36:06;6.53;;;4.43;;
75937;SDS011;64615;32.062;34.834;2023-06-10T10:38:32;7.00;;;4.70;;
75937;SDS011;64615;32.062;34.834;2023-06-10T10:40:59;8.00;;;4.93;;
75937;SDS011;64615;32.062;34.834;2023-06-10T10:43:26;6.38;;;4.30;;
75937;SDS011;64615;32.062;34.834;2023-06-10T10:46:00;7.05;;;4.35;;
75937;SDS011;64615;32.062;34.834;2023-06-10T10:48:42;6.22;;;4.45;;
75937;SDS011;64615;32.062;34.834;2023-06-10T10:51:09;6.85;;;4.25;;
75937;SDS011;64615;32.062;34.834;2023-06-10T10:53:39;5.88;;;4.00;;
75937;SDS011;64615;32.062;34.834;2023-06-10T10:58:38;6.43;;;3.65;;
75937;SDS011;64615;32.062;34.834;2023-06-10T11:01:13;6.50;;;4.18;;
75937;SDS011;64615;32.062;34.834;2023-06-10T11:03:43;7.53;;;4.00;;
75937;SDS011;64615;32.062;34.834;2023-06-10T11:06:18;6.43;;;3.83;;
75937;SDS011;64615;32.062;34.834;2023-06-10T11:16:27;6.10;;;3.92;;
75937;SDS011;64615;32.062;34.834;2023-06-10T11:18:54;6.47;;;3.38;;
75937;SDS011;64615;32.062;34.834;2023-06-10T11:21:20;6.38;;;3.67;;
75937;SDS011;64615;32.062;34.834;2023-06-10T11:23:50;5.57;;;3.88;;
75937;SDS011;64615;32.062;34.834;2023-06-10T11:33:54;5.97;;;3.40;;
75937;SDS011;64615;32.062;34.834;2023-06-10T11:36:23;7.63;;;3.45;;
75937;SDS011;64615;32.062;34.834;2023-06-10T11:38:56;6.07;;;3.72;;
75937;SDS011;64615;32.062;34.834;2023-06-10T11:41:29;6.57;;;3.53;;
75937;SDS011;64615;32.062;34.834;2023-06-10T11:44:12;6.55;;;3.55;;
75937;SDS011;64615;32.062;34.834;2023-06-10T11:46:38;5.00;;;3.30;;
75937;SDS011;64615;32.062;34.834;2023-06-10T11:49:05;9.27;;;3.17;;
75937;SDS011;64615;32.062;34.834;2023-06-10T11:51:32;6.97;;;3.55;;
75937;SDS011;64615;32.062;34.834;2023-06-10T11:54:03;6.32;;;3.88;;
75937;SDS011;64615;32.062;34.834;2023-06-10T11:56:30;8.73;;;3.40;;
75937;SDS011;64615;32.062;34.834;2023-06-10T12:01:31;6.93;;;3.65;;
75937;SDS011;64615;32.062;34.834;2023-06-10T12:11:48;13.70;;;5.97;;
75937;SDS011;64615;32.062;34.834;2023-06-10T12:14:15;7.50;;;3.90;;
75937;SDS011;64615;32.062;34.834;2023-06-10T12:16:47;11.73;;;5.05;;
75937;SDS011;64615;32.062;34.834;2023-06-10T12:19:13;7.43;;;4.53;;
75937;SDS011;64615;32.062;34.834;2023-06-10T12:21:39;9.07;;;4.53;;
75937;SDS011;64615;32.062;34.834;2023-06-10T12:24:06;8.23;;;4.65;;
75937;SDS011;64615;32.062;34.834;2023-06-10T12:26:41;8.77;;;4.43;;
75937;SDS011;64615;32.062;34.834;2023-06-10T12:31:58;10.93;;;4.38;;
75937;SDS011;64615;32.062;34.834;2023-06-10T12:34:37;13.35;;;4.43;;
75937;SDS011;64615;32.062;34.834;2023-06-10T12:37:13;11.77;;;4.25;;
75937;SDS011;64615;32.062;34.834;2023-06-10T12:39:39;12.05;;;3.83;;
75937;SDS011;64615;32.062;34.834;2023-06-10T12:42:06;13.50;;;4.30;;
75937;SDS011;64615;32.062;34.834;2023-06-10T12:44:35;11.27;;;4.22;;
75937;SDS011;64615;32.062;34.834;2023-06-10T12:47:11;11.55;;;3.67;;
75937;SDS011;64615;32.062;34.834;2023-06-10T12:49:39;28.20;;;5.13;;
75937;SDS011;64615;32.062;34.834;2023-06-10T12:52:05;17.77;;;5.90;;
75937;SDS011;64615;32.062;34.834;2023-06-10T12:54:31;35.05;;;6.80;;
75937;SDS011;64615;32.062;34.834;2023-06-10T12:56:57;20.67;;;7.35;;
75937;SDS011;64615;32.062;34.834;2023-06-10T12:59:23;27.80;;;7.78;;
75937;SDS011;64615;32.062;34.834;2023-06-10T13:01:52;37.38;;;9.15;;
75937;SDS011;64615;32.062;34.834;2023-06-10T13:04:19;21.92;;;10.60;;
75937;SDS011;64615;32.062;34.834;2023-06-10T13:06:46;28.13;;;11.35;;
75937;SDS011;64615;32.062;34.834;2023-06-10T13:09:14;27.67;;;10.40;;
75937;SDS011;64615;32.062;34.834;2023-06-10T13:11:40;30.48;;;8.60;;
75937;SDS011;64615;32.062;34.834;2023-06-10T13:14:07;27.60;;;8.02;;
75937;SDS011;64615;32.062;34.834;2023-06-10T13:16:33;37.85;;;7.53;;
75937;SDS011;64615;32.062;34.834;2023-06-10T13:18:59;24.65;;;7.00;;
75937;SDS011;64615;32.062;34.834;2023-06-10T13:21:27;29.33;;;6.85;;
75937;SDS011;64615;32.062;34.834;2023-06-10T13:23:53;26.83;;;6.40;;
75937;SDS011;64615;32.062;34.834;2023-06-10T13:26:19;13.32;;;5.85;;
75937;SDS011;64615;32.062;34.834;2023-06-10T13:28:45;20.60;;;6.28;;
75937;SDS011;64615;32.062;34.834;2023-06-10T13:31:10;22.30;;;6.13;;
75937;SDS011;64615;32.062;34.834;2023-06-10T13:33:36;39.90;;;6.80;;
75937;SDS011;64615;32.062;34.834;2023-06-10T13:36:02;26.52;;;6.90;;
75937;SDS011;64615;32.062;34.834;2023-06-10T13:38:28;26.35;;;7.20;;
75937;SDS011;64615;32.062;34.834;2023-06-10T13:40:54;23.73;;;6.50;;
75937;SDS011;64615;32.062;34.834;2023-06-10T13:43:20;16.52;;;6.07;;
75937;SDS011;64615;32.062;34.834;2023-06-10T13:45:45;23.98;;;6.80;;
75937;SDS011;64615;32.062;34.834;2023-06-10T13:48:11;33.65;;;7.80;;
75937;SDS011;64615;32.062;34.834;2023-06-10T13:50:37;29.60;;;7.03;;
75937;SDS011;64615;32.062;34.834;2023-06-10T13:53:03;25.52;;;7.53;;
75937;SDS011;64615;32.062;34.834;2023-06-10T13:55:29;18.67;;;6.60;;
75937;SDS011;64615;32.062;34.834;2023-06-10T13:57:55;18.38;;;6.65;;
75937;SDS011;64615;32.062;34.834;2023-06-10T14:00:20;21.98;;;6.82;;
75937;SDS011;64615;32.062;34.834;2023-06-10T14:02:46;19.25;;;6.72;;
75937;SDS011;64615;32.062;34.834;2023-06-10T14:05:11;21.77;;;6.70;;
75937;SDS011;64615;32.062;34.834;2023-06-10T14:07:37;18.73;;;7.15;;
75937;SDS011;64615;32.062;34.834;2023-06-10T14:10:03;16.15;;;6.30;;
75937;SDS011;64615;32.062;34.834;2023-06-10T14:12:29;26.75;;;7.28;;
75937;SDS011;64615;32.062;34.834;2023-06-10T14:14:55;20.73;;;6.82;;
75937;SDS011;64615;32.062;34.834;2023-06-10T14:17:20;15.38;;;6.40;;
75937;SDS011;64615;32.062;34.834;2023-06-10T14:19:48;17.85;;;7.18;;
75937;SDS011;64615;32.062;34.834;2023-06-10T14:22:13;19.67;;;7.10;;
75937;SDS011;64615;32.062;34.834;2023-06-10T14:24:39;15.05;;;6.88;;
75937;SDS011;64615;32.062;34.834;2023-06-10T14:27:05;15.75;;;6.90;;
75937;SDS011;64615;32.062;34.834;2023-06-10T14:29:31;13.70;;;6.43;;
75937;SDS011;64615;32.062;34.834;2023-06-10T14:31:58;11.20;;;5.82;;
75937;SDS011;64615;32.062;34.834;2023-06-10T14:34:24;14.27;;;6.57;;
75937;SDS011;64615;32.062;34.834;2023-06-10T14:36:54;18.55;;;6.25;;
75937;SDS011;64615;32.062;34.834;2023-06-10T14:39:20;13.35;;;6.03;;
75937;SDS011;64615;32.062;34.834;2023-06-10T14:41:45;12.63;;;6.32;;
75937;SDS011;64615;32.062;34.834;2023-06-10T14:44:11;17.35;;;6.32;;
75937;SDS011;64615;32.062;34.834;2023-06-10T14:46:37;15.35;;;6.35;;
75937;SDS011;64615;32.062;34.834;2023-06-10T14:49:02;12.40;;;6.20;;
75937;SDS011;64615;32.062;34.834;2023-06-10T14:51:28;15.43;;;6.32;;
75937;SDS011;64615;32.062;34.834;2023-06-10T14:53:53;14.20;;;6.60;;
75937;SDS011;64615;32.062;34.834;2023-06-10T14:56:19;17.95;;;6.65;;
75937;SDS011;64615;32.062;34.834;2023-06-10T14:58:45;16.30;;;6.75;;
75937;SDS011;64615;32.062;34.834;2023-06-10T15:01:10;15.02;;;6.85;;
75937;SDS011;64615;32.062;34.834;2023-06-10T15:03:36;17.88;;;7.25;;
75937;SDS011;64615;32.062;34.834;2023-06-10T15:06:01;15.63;;;6.70;;
75937;SDS011;64615;32.062;34.834;2023-06-10T15:08:28;13.07;;;6.40;;
75937;SDS011;64615;32.062;34.834;2023-06-10T15:10:53;14.35;;;6.05;;
75937;SDS011;64615;32.062;34.834;2023-06-10T15:13:19;15.70;;;6.78;;